createdAt,value
2022-09-23T00:01:25.642Z,8.25
2022-09-23T00:03:53.842Z,7.10
2022-09-23T00:06:24.269Z,6.78
2022-09-23T00:08:53.156Z,6.75
2022-09-23T00:11:24.125Z,7.05
2022-09-23T00:13:55.725Z,5.60
2022-09-23T00:16:29.858Z,5.28
2022-09-23T00:18:58.175Z,4.95
2022-09-23T00:21:26.540Z,5.13
2022-09-23T00:23:55.079Z,4.57
2022-09-23T00:26:24.459Z,6.45
2022-09-23T00:28:52.864Z,9.90
2022-09-23T00:31:24.059Z,10.98
2022-09-23T00:34:01.229Z,10.65
2022-09-23T00:36:30.961Z,10.15
2022-09-23T00:38:59.463Z,9.35
2022-09-23T00:41:28.453Z,9.20
2022-09-23T00:44:00.869Z,9.82
2022-09-23T00:46:44.156Z,12.18
2022-09-23T00:49:19.231Z,10.05
2022-09-23T00:51:57.621Z,10.60
2022-09-23T00:54:28.234Z,9.70
2022-09-23T00:56:58.165Z,9.57
2022-09-23T01:00:25.479Z,9.50
2022-09-23T01:02:54.130Z,9.18
2022-09-23T01:05:22.717Z,9.77
2022-09-23T01:07:51.612Z,11.73
2022-09-23T01:10:20.186Z,10.57
2022-09-23T01:13:11.066Z,11.75
2022-09-23T01:16:00.745Z,8.73
2022-09-23T01:18:43.969Z,8.50
2022-09-23T01:21:18.733Z,7.53
2022-09-23T01:24:04.904Z,7.10
2022-09-23T01:27:01.417Z,6.70
2022-09-23T01:29:32.512Z,6.93
2022-09-23T01:32:04.351Z,7.65
2022-09-23T01:34:35.541Z,6.47
2022-09-23T01:37:16.795Z,6.55
2022-09-23T01:39:48.151Z,6.85
2022-09-23T01:42:27.980Z,5.43
2022-09-23T01:45:19.626Z,62.92
2022-09-23T01:48:10.338Z,11.63
2022-09-23T01:50:47.118Z,155.75
2022-09-23T01:53:24.893Z,109.18
2022-09-23T01:55:57.200Z,31.17
2022-09-23T01:58:42.990Z,8.40
2022-09-23T02:01:15.983Z,21.45
2022-09-23T02:04:00.370Z,30.73
2022-09-23T02:06:38.517Z,53.28
2022-09-23T02:09:12.718Z,37.20
2022-09-23T02:11:44.575Z,17.60
2022-09-23T02:14:21.434Z,58.20
2022-09-23T02:16:57.318Z,48.03
2022-09-23T02:19:42.018Z,38.17
2022-09-23T02:22:19.969Z,27.23
2022-09-23T02:24:49.372Z,16.38
2022-09-23T02:27:20.367Z,4.93
2022-09-23T02:30:00.411Z,3.92
2022-09-23T02:32:47.626Z,6.80
2022-09-23T02:35:27.291Z,6.78
2022-09-23T02:37:58.565Z,7.47
2022-09-23T02:40:46.829Z,32.93
2022-09-23T02:43:23.082Z,17.38
2022-09-23T02:45:51.516Z,8.38
2022-09-23T02:48:34.537Z,5.97
2022-09-23T02:51:03.012Z,4.60
2022-09-23T02:53:35.338Z,4.15
2022-09-23T02:56:17.997Z,2.70
2022-09-23T02:58:47.022Z,2.67
2022-09-23T03:01:38.466Z,2.20
2022-09-23T03:04:18.919Z,2.58
2022-09-23T03:06:53.323Z,2.60
2022-09-23T03:09:36.403Z,2.72
2022-09-23T03:12:19.995Z,2.90
2022-09-23T03:15:18.931Z,24.42
2022-09-23T03:17:55.853Z,24.13
2022-09-23T03:20:38.514Z,22.45
2022-09-23T03:23:11.029Z,21.15
2022-09-23T03:25:41.645Z,22.70
2022-09-23T03:28:10.622Z,20.58
2022-09-23T03:30:40.229Z,18.83
2022-09-23T03:33:11.908Z,15.40
2022-09-23T03:35:53.000Z,13.00
2022-09-23T03:38:25.248Z,10.55
2022-09-23T03:43:22.364Z,7.95
2022-09-23T03:45:54.665Z,7.20
2022-09-23T03:48:22.990Z,7.47
2022-09-23T03:50:51.413Z,7.35
2022-09-23T03:53:19.849Z,6.22
2022-09-23T03:55:48.537Z,6.20
2022-09-23T03:58:16.894Z,5.50
2022-09-23T04:00:45.182Z,5.80
2022-09-23T04:03:13.270Z,5.85
2022-09-23T04:05:41.542Z,5.70
2022-09-23T04:08:09.643Z,5.93
2022-09-23T04:10:42.021Z,6.28
2022-09-23T04:13:10.180Z,6.00
2022-09-23T04:15:38.310Z,6.43
2022-09-23T04:18:06.605Z,6.97
2022-09-23T04:20:34.620Z,7.22
2022-09-23T04:23:02.728Z,7.03
2022-09-23T04:25:31.007Z,6.93
2022-09-23T04:27:59.206Z,6.45
2022-09-23T04:30:27.349Z,6.80
2022-09-23T04:32:55.478Z,7.60
2022-09-23T04:35:23.623Z,8.18
2022-09-23T04:37:51.870Z,8.60
2022-09-23T04:40:20.049Z,7.82
2022-09-23T04:42:48.200Z,7.60
2022-09-23T04:45:16.381Z,7.93
2022-09-23T04:47:44.538Z,8.35
2022-09-23T04:50:12.677Z,7.60
2022-09-23T04:52:40.808Z,7.88
2022-09-23T04:55:11.318Z,7.75
2022-09-23T04:57:39.791Z,6.88
2022-09-23T05:00:08.541Z,8.20
2022-09-23T05:02:42.527Z,7.35
2022-09-23T05:05:10.837Z,7.68
2022-09-23T05:07:39.244Z,8.25
2022-09-23T05:10:08.474Z,7.70
2022-09-23T05:12:36.508Z,8.30
2022-09-23T05:15:05.061Z,8.48
2022-09-23T05:17:33.348Z,7.55
2022-09-23T05:20:01.567Z,8.55
2022-09-23T05:23:14.882Z,10.30
2022-09-23T05:25:43.040Z,9.25
2022-09-23T05:28:11.169Z,10.15
2022-09-23T05:30:39.294Z,10.65
2022-09-23T05:33:07.556Z,10.93
2022-09-23T05:35:35.557Z,11.27
2022-09-23T05:38:03.717Z,11.35
2022-09-23T05:40:31.999Z,10.70
2022-09-23T05:43:00.083Z,10.85
2022-09-23T05:45:28.228Z,11.18
2022-09-23T05:47:56.389Z,10.65
2022-09-23T05:50:24.591Z,12.35
2022-09-23T05:52:52.859Z,10.80
2022-09-23T05:55:21.037Z,11.98
2022-09-23T05:57:49.187Z,11.07
2022-09-23T06:00:17.408Z,11.40
2022-09-23T06:02:47.548Z,10.77
2022-09-23T06:05:15.789Z,12.30
2022-09-23T06:07:44.133Z,13.35
2022-09-23T06:10:12.158Z,12.02
2022-09-23T06:12:40.404Z,12.65
2022-09-23T06:15:08.919Z,12.13
2022-09-23T06:17:37.031Z,13.98
2022-09-23T06:20:05.440Z,13.95
2022-09-23T06:22:36.874Z,13.52
2022-09-23T06:25:07.559Z,13.48
2022-09-23T06:27:35.787Z,16.00
2022-09-23T06:30:04.208Z,17.38
2022-09-23T06:32:32.452Z,15.93
2022-09-23T06:35:00.664Z,17.00
2022-09-23T06:37:28.691Z,17.67
2022-09-23T06:39:56.936Z,17.55
2022-09-23T06:42:25.128Z,19.15
2022-09-23T06:44:53.327Z,18.58
2022-09-23T06:47:21.438Z,18.77
2022-09-23T06:49:49.538Z,16.95
2022-09-23T06:52:17.775Z,15.32
2022-09-23T06:54:45.910Z,14.07
2022-09-23T06:57:14.490Z,14.57
2022-09-23T06:59:42.552Z,13.73
2022-09-23T07:02:13.700Z,14.23
2022-09-23T07:04:41.979Z,12.82
2022-09-23T07:07:10.240Z,12.32
2022-09-23T07:09:38.390Z,14.98
2022-09-23T07:12:06.640Z,15.70
2022-09-23T07:14:34.707Z,15.50
2022-09-23T07:17:02.959Z,18.55
2022-09-23T07:19:31.140Z,18.95
2022-09-23T07:21:59.177Z,18.85
2022-09-23T07:24:27.482Z,20.00
2022-09-23T07:26:55.723Z,18.73
2022-09-23T07:29:23.852Z,20.60
2022-09-23T07:31:52.960Z,21.20
2022-09-23T07:34:22.457Z,19.98
2022-09-23T07:36:50.909Z,20.27
2022-09-23T07:39:19.118Z,19.40
2022-09-23T07:41:47.365Z,19.38
2022-09-23T07:44:15.640Z,20.10
2022-09-23T07:46:45.330Z,19.17
2022-09-23T07:49:13.696Z,23.17
2022-09-23T07:51:43.393Z,26.73
2022-09-23T07:54:14.224Z,24.52
2022-09-23T07:56:44.261Z,23.25
2022-09-23T07:59:16.219Z,22.75
2022-09-23T08:01:47.181Z,20.83
2022-09-23T08:04:23.299Z,22.00
2022-09-23T08:06:54.009Z,21.30
2022-09-23T08:09:25.469Z,22.27
2022-09-23T08:11:53.669Z,22.00
2022-09-23T08:14:22.276Z,22.15
2022-09-23T08:16:51.560Z,21.25
2022-09-23T08:19:20.263Z,22.40
2022-09-23T08:21:48.416Z,21.13
2022-09-23T08:24:19.904Z,20.27
2022-09-23T08:26:49.159Z,20.67
2022-09-23T08:29:19.035Z,19.15
2022-09-23T08:31:48.012Z,20.05
2022-09-23T08:34:16.821Z,18.75
2022-09-23T08:36:45.627Z,18.48
2022-09-23T08:39:19.000Z,16.38
2022-09-23T08:42:02.837Z,14.52
2022-09-23T08:44:53.899Z,14.98
2022-09-23T08:47:42.932Z,13.65
2022-09-23T08:50:37.531Z,14.00
2022-09-23T08:53:38.015Z,12.93
2022-09-23T08:56:15.482Z,12.32
2022-09-23T08:59:20.828Z,11.55
2022-09-23T09:01:53.530Z,11.00
2022-09-23T09:04:34.125Z,9.50
2022-09-23T09:07:34.844Z,8.88
2022-09-23T09:10:22.676Z,10.60
2022-09-23T09:13:23.491Z,10.43
2022-09-23T09:16:07.396Z,10.63
2022-09-23T09:18:39.400Z,11.23
2022-09-23T09:21:14.625Z,11.15
2022-09-23T09:23:56.444Z,12.13
2022-09-23T09:26:34.807Z,12.50
2022-09-23T09:29:34.246Z,13.57
2022-09-23T09:32:33.205Z,15.55
2022-09-23T09:35:16.157Z,15.02
2022-09-23T09:37:50.250Z,15.77
2022-09-23T09:40:19.048Z,15.77
2022-09-23T09:42:50.366Z,16.55
2022-09-23T09:45:33.379Z,16.33
2022-09-23T09:48:18.132Z,16.30
2022-09-23T09:50:54.437Z,18.45
2022-09-23T09:53:25.748Z,17.95
2022-09-23T09:56:08.415Z,19.00
2022-09-23T09:58:50.398Z,19.23
2022-09-23T10:01:39.116Z,20.75
2022-09-23T10:04:33.505Z,20.60
2022-09-23T10:07:08.283Z,18.52
2022-09-23T10:09:38.574Z,19.83
2022-09-23T10:12:14.426Z,18.42
2022-09-23T10:14:47.866Z,18.38
2022-09-23T10:17:39.221Z,18.90
2022-09-23T10:20:09.341Z,16.10
2022-09-23T10:22:40.743Z,16.45
2022-09-23T10:25:16.636Z,15.73
2022-09-23T10:27:44.996Z,15.43
2022-09-23T10:30:16.264Z,16.33
2022-09-23T10:32:45.693Z,16.33
2022-09-23T10:35:19.817Z,15.02
2022-09-23T10:38:00.641Z,13.90
2022-09-23T10:40:43.812Z,14.57
2022-09-23T10:43:33.736Z,13.02
2022-09-23T10:46:17.807Z,13.45
2022-09-23T10:49:08.494Z,13.43
2022-09-23T10:52:08.303Z,13.30
2022-09-23T10:55:05.885Z,12.65
2022-09-23T10:57:43.170Z,12.75
2022-09-23T11:00:22.601Z,11.60
2022-09-23T11:02:51.088Z,10.45
2022-09-23T11:05:56.320Z,7.75
2022-09-23T11:08:37.718Z,7.75
2022-09-23T11:11:31.146Z,8.33
2022-09-23T11:14:29.345Z,8.52
2022-09-23T11:17:18.789Z,7.65
2022-09-23T11:20:18.024Z,9.02
2022-09-23T11:23:14.001Z,5.82
2022-09-23T11:26:19.419Z,7.05
2022-09-23T11:29:26.234Z,6.93
2022-09-23T11:32:16.902Z,9.20
2022-09-23T11:35:03.257Z,8.60
2022-09-23T11:37:39.111Z,11.25
2022-09-23T11:40:33.226Z,15.00
2022-09-23T11:43:16.136Z,10.27
2022-09-23T11:45:58.020Z,9.00
2022-09-23T11:48:35.194Z,9.18
2022-09-23T11:51:26.138Z,9.00
2022-09-23T11:54:06.732Z,7.32
2022-09-23T11:56:47.231Z,6.97
2022-09-23T11:59:34.087Z,7.78
2022-09-23T12:02:34.147Z,8.88
2022-09-23T12:05:09.063Z,8.05
2022-09-23T12:08:11.369Z,8.73
2022-09-23T12:11:01.375Z,10.18
2022-09-23T12:14:05.054Z,8.20
2022-09-23T12:17:08.093Z,8.90
2022-09-23T12:20:06.453Z,8.30
2022-09-23T12:23:02.208Z,6.63
2022-09-23T12:25:36.567Z,6.97
2022-09-23T12:28:12.380Z,5.95
2022-09-23T12:33:24.314Z,6.35
2022-09-23T12:35:55.189Z,4.60
2022-09-23T12:38:57.613Z,4.82
2022-09-23T12:41:47.792Z,5.70
2022-09-23T12:44:30.572Z,5.78
2022-09-23T12:47:17.401Z,6.38
2022-09-23T12:49:45.996Z,5.95
2022-09-23T12:52:17.305Z,5.53
2022-09-23T12:54:47.897Z,7.10
2022-09-23T12:57:35.985Z,6.30
2022-09-23T13:00:27.439Z,5.90
2022-09-23T13:03:00.996Z,7.78
2022-09-23T13:05:30.635Z,7.37
2022-09-23T13:08:24.422Z,6.47
2022-09-23T13:11:06.424Z,6.38
2022-09-23T13:13:44.857Z,6.38
2022-09-23T13:16:14.642Z,6.35
2022-09-23T13:18:56.845Z,5.47
2022-09-23T13:24:14.373Z,6.45
2022-09-23T13:27:15.335Z,7.53
2022-09-23T13:29:45.964Z,6.72
2022-09-23T13:32:19.717Z,6.78
2022-09-23T13:35:07.241Z,7.00
2022-09-23T13:37:49.071Z,6.43
2022-09-23T13:40:25.431Z,5.88
2022-09-23T13:43:25.753Z,7.53
2022-09-23T13:45:54.488Z,5.55
2022-09-23T13:48:25.949Z,5.65
2022-09-23T13:50:54.809Z,7.43
2022-09-23T13:53:33.193Z,8.60
2022-09-23T13:56:16.034Z,8.30
2022-09-23T13:58:44.389Z,9.30
2022-09-23T14:01:32.833Z,9.05
2022-09-23T14:04:01.742Z,7.40
2022-09-23T14:06:39.594Z,5.53
2022-09-23T14:09:07.837Z,7.47
2022-09-23T14:11:36.392Z,6.82
2022-09-23T14:14:05.574Z,4.95
2022-09-23T14:16:38.789Z,5.75
2022-09-23T14:19:07.290Z,8.68
2022-09-23T14:21:38.963Z,6.30
2022-09-23T14:24:18.899Z,5.60
2022-09-23T14:26:58.292Z,5.25
2022-09-23T14:29:38.815Z,4.63
2022-09-23T14:32:22.773Z,4.70
2022-09-23T14:34:53.871Z,5.45
2022-09-23T14:37:45.560Z,4.28
2022-09-23T14:40:21.380Z,5.57
2022-09-23T14:43:13.702Z,5.38
2022-09-23T14:48:19.114Z,4.68
2022-09-23T14:50:50.530Z,8.00
2022-09-23T14:53:19.004Z,5.05
2022-09-23T14:55:53.312Z,5.15
2022-09-23T14:58:26.097Z,4.07
2022-09-23T15:01:02.141Z,4.78
2022-09-23T15:03:30.489Z,4.93
2022-09-23T15:06:08.329Z,6.00
2022-09-23T15:08:37.487Z,4.57
2022-09-23T15:11:08.316Z,4.90
2022-09-23T15:13:43.131Z,5.18
2022-09-23T15:16:14.922Z,5.18
2022-09-23T15:18:53.969Z,4.88
2022-09-23T15:21:22.623Z,9.82
2022-09-23T15:23:56.552Z,4.90
2022-09-23T15:26:26.969Z,5.07
2022-09-23T15:28:57.397Z,5.50
2022-09-23T15:31:27.361Z,4.90
2022-09-23T15:33:55.598Z,4.90
2022-09-23T15:36:29.179Z,4.68
2022-09-23T15:39:04.866Z,5.03
2022-09-23T15:41:34.852Z,6.28
2022-09-23T15:44:29.234Z,5.68
2022-09-23T15:46:58.424Z,6.38
2022-09-23T15:49:38.217Z,6.63
2022-09-23T15:52:07.170Z,7.40
2022-09-23T15:54:35.472Z,5.30
2022-09-23T15:57:03.983Z,5.45
2022-09-23T15:59:32.522Z,5.20
2022-09-23T16:02:04.550Z,4.25
2022-09-23T16:07:00.537Z,5.93
2022-09-23T16:09:28.850Z,6.13
2022-09-23T16:11:57.125Z,6.60
2022-09-23T16:14:25.424Z,6.18
2022-09-23T16:16:53.571Z,6.78
2022-09-23T16:19:21.931Z,7.13
2022-09-23T16:21:50.215Z,5.60
2022-09-23T16:24:21.700Z,4.45
2022-09-23T16:26:52.058Z,4.30
2022-09-23T16:29:20.267Z,4.63
2022-09-23T16:31:48.723Z,5.00
2022-09-23T16:34:17.003Z,6.93
2022-09-23T16:36:45.184Z,6.47
2022-09-23T16:39:14.625Z,6.88
2022-09-23T16:41:43.130Z,7.63
2022-09-23T16:44:11.737Z,6.90
2022-09-23T16:46:39.997Z,5.85
2022-09-23T16:49:08.354Z,6.13
2022-09-23T16:51:36.661Z,4.18
2022-09-23T16:54:08.611Z,4.85
2022-09-23T16:56:41.681Z,5.72
2022-09-23T16:59:10.246Z,6.30
2022-09-23T17:01:38.372Z,4.57
2022-09-23T17:04:07.469Z,5.40
2022-09-23T17:06:35.938Z,9.38
2022-09-23T17:09:04.288Z,7.10
2022-09-23T17:11:34.231Z,4.72
2022-09-23T17:14:02.689Z,7.93
2022-09-23T17:16:32.940Z,12.52
2022-09-23T17:19:06.090Z,7.60
2022-09-23T17:21:34.723Z,6.10
2022-09-23T17:24:03.058Z,5.80
2022-09-23T17:26:31.485Z,6.30
2022-09-23T17:28:59.625Z,6.75
2022-09-23T17:31:28.208Z,5.50
2022-09-23T17:33:56.560Z,6.38
2022-09-23T17:36:24.743Z,5.82
2022-09-23T17:38:53.055Z,5.80
2022-09-23T17:41:21.488Z,5.75
2022-09-23T17:43:55.151Z,5.97
2022-09-23T17:46:23.394Z,5.38
2022-09-23T17:48:51.492Z,6.07
2022-09-23T17:51:19.994Z,5.05
2022-09-23T17:53:49.492Z,6.60
2022-09-23T17:56:20.912Z,5.60
2022-09-23T17:58:50.321Z,4.55
2022-09-23T18:01:27.458Z,5.93
2022-09-23T18:03:58.081Z,6.75
2022-09-23T18:06:31.437Z,6.88
2022-09-23T18:09:01.113Z,5.90
2022-09-23T18:11:31.664Z,5.90
2022-09-23T18:14:02.535Z,5.72
2022-09-23T18:16:35.069Z,6.88
2022-09-23T18:19:04.970Z,8.43
2022-09-23T18:21:36.139Z,8.57
2022-09-23T18:24:30.781Z,7.28
2022-09-23T18:26:52.894Z,5.30
2022-09-23T18:29:21.091Z,5.75
2022-09-23T18:31:49.354Z,6.82
2022-09-23T18:34:18.171Z,7.28
2022-09-23T18:36:46.526Z,6.72
2022-09-23T18:39:15.008Z,7.63
2022-09-23T18:41:43.414Z,6.57
2022-09-23T18:44:11.686Z,8.55
2022-09-23T18:46:39.884Z,7.72
2022-09-23T18:49:08.993Z,11.05
2022-09-23T18:51:47.015Z,14.98
2022-09-23T18:54:15.544Z,15.65
2022-09-23T18:56:44.669Z,16.30
2022-09-23T18:59:15.789Z,14.88
2022-09-23T19:01:44.897Z,7.97
2022-09-23T19:04:14.120Z,6.82
2022-09-23T19:06:42.604Z,4.82
2022-09-23T19:09:11.472Z,5.50
2022-09-23T19:11:40.155Z,6.22
2022-09-23T19:14:11.440Z,9.23
2022-09-23T19:16:41.194Z,9.48
2022-09-23T19:19:10.253Z,7.80
2022-09-23T19:21:38.560Z,7.15
2022-09-23T19:24:08.640Z,6.93
2022-09-23T19:26:41.520Z,7.15
2022-09-23T19:29:16.204Z,8.13
2022-09-23T19:31:44.918Z,7.82
2022-09-23T19:34:15.651Z,7.78
2022-09-23T19:36:45.934Z,10.80
2022-09-23T19:39:22.778Z,7.15
2022-09-23T19:41:52.978Z,7.25
2022-09-23T19:44:21.183Z,5.93
2022-09-23T19:46:53.371Z,7.30
2022-09-23T19:49:24.690Z,5.50
2022-09-23T19:51:53.847Z,6.85
2022-09-23T19:54:22.050Z,6.10
2022-09-23T19:56:50.507Z,6.50
2022-09-23T19:59:19.594Z,7.15
2022-09-23T20:01:49.074Z,7.07
2022-09-23T20:04:17.926Z,6.13
2022-09-23T20:06:46.070Z,6.78
2022-09-23T20:09:14.674Z,7.18
2022-09-23T20:11:42.981Z,6.95
2022-09-23T20:14:11.934Z,8.15
2022-09-23T20:16:40.622Z,7.75
2022-09-23T20:19:10.064Z,8.90
2022-09-23T20:21:38.317Z,7.25
2022-09-23T20:24:06.787Z,5.88
2022-09-23T20:26:35.221Z,8.25
2022-09-23T20:29:03.625Z,6.18
2022-09-23T20:31:31.968Z,5.63
2022-09-23T20:34:00.366Z,5.80
2022-09-23T20:36:30.334Z,6.65
2022-09-23T20:39:02.699Z,7.10
2022-09-23T20:41:32.334Z,5.93
2022-09-23T20:44:00.689Z,6.82
2022-09-23T20:46:29.983Z,9.65
2022-09-23T20:48:58.157Z,9.75
2022-09-23T20:51:26.573Z,9.38
2022-09-23T20:53:54.775Z,8.70
2022-09-23T20:56:23.736Z,6.68
2022-09-23T20:58:52.136Z,5.35
2022-09-23T21:01:20.808Z,5.18
2022-09-23T21:03:50.563Z,4.68
2022-09-23T21:06:19.403Z,6.25
2022-09-23T21:08:47.864Z,5.88
2022-09-23T21:11:17.757Z,12.65
2022-09-23T21:13:47.976Z,23.67
2022-09-23T21:16:17.704Z,9.63
2022-09-23T21:18:46.364Z,14.93
2022-09-23T21:21:15.480Z,14.07
2022-09-23T21:23:43.737Z,10.48
2022-09-23T21:26:14.127Z,6.47
2022-09-23T21:28:49.966Z,7.25
2022-09-23T21:31:21.506Z,7.20
2022-09-23T21:33:56.198Z,7.40
2022-09-23T21:36:25.391Z,7.82
2022-09-23T21:38:54.113Z,7.55
2022-09-23T21:41:22.623Z,6.78
2022-09-23T21:43:51.171Z,5.40
2022-09-23T21:46:21.238Z,6.18
2022-09-23T21:50:12.859Z,6.88
2022-09-23T21:52:41.211Z,6.88
2022-09-23T21:55:09.437Z,7.00
2022-09-23T21:57:37.594Z,7.78
2022-09-23T22:00:09.122Z,9.68
2022-09-23T22:02:37.387Z,7.00
2022-09-23T22:05:06.584Z,6.90
2022-09-23T22:07:37.255Z,6.43
2022-09-23T22:10:06.083Z,12.50
2022-09-23T22:12:34.420Z,27.95
2022-09-23T22:15:02.565Z,38.00
2022-09-23T22:17:30.788Z,28.80
2022-09-23T22:20:01.951Z,34.75
2022-09-23T22:22:30.367Z,29.57
2022-09-23T22:24:58.614Z,16.73
2022-09-23T22:27:26.861Z,20.58
2022-09-23T22:29:55.218Z,12.85
2022-09-23T22:32:23.501Z,13.18
2022-09-23T22:34:52.468Z,18.77
2022-09-23T22:37:25.795Z,12.73
2022-09-23T22:39:54.503Z,20.13
2022-09-23T22:42:23.186Z,25.92
2022-09-23T22:44:51.987Z,20.55
2022-09-23T22:47:20.921Z,17.25
2022-09-23T22:49:49.899Z,19.25
2022-09-23T22:52:18.084Z,20.33
2022-09-23T22:54:46.403Z,20.83
2022-09-23T22:57:14.668Z,13.13
2022-09-23T22:59:42.743Z,26.50
2022-09-23T23:02:11.036Z,36.97
2022-09-23T23:04:39.183Z,24.63
2022-09-23T23:07:07.488Z,42.90
2022-09-23T23:09:35.710Z,30.13
2022-09-23T23:12:03.832Z,28.85
2022-09-23T23:14:32.256Z,23.30
2022-09-23T23:17:00.381Z,230.55
2022-09-23T23:19:28.569Z,225.07
2022-09-23T23:21:56.784Z,46.22
2022-09-23T23:24:25.282Z,54.25
2022-09-23T23:28:52.757Z,5.85
2022-09-23T23:31:22.875Z,27.48
2022-09-23T23:33:51.435Z,26.90
2022-09-23T23:36:21.129Z,8.38
2022-09-23T23:38:51.060Z,6.05
2022-09-23T23:41:22.660Z,5.32
2022-09-23T23:44:01.254Z,6.38
2022-09-23T23:46:31.473Z,8.45
2022-09-23T23:49:01.329Z,10.20
2022-09-23T23:51:29.598Z,6.15
2022-09-23T23:53:59.149Z,6.25
2022-09-23T23:56:28.391Z,5.72
2022-09-23T23:59:01.957Z,4.88
